Time;durP1;ratioP1;P1;durP2;ratioP2;P2;SDS_P1;SDS_P2;PMS_P1;PMS_P2;Temp;Humidity;BMP_temperature;BMP_pressure;BME280_temperature;BME280_humidity;BME280_pressure;Samples;Min_cycle;Max_cycle;Signal;HPM_P1;HPM_P2
2023/09/25 00:00:51;;;;;;;6.95;5.57;;;11.50;99.90;;;;;;4934944;28;20417;-81
2023/09/25 00:03:17;;;;;;;7.88;5.13;;;11.50;99.90;;;;;;4956520;28;20046;-81
2023/09/25 00:05:44;;;;;;;7.07;4.35;;;11.50;99.90;;;;;;4965431;28;20081;-81
2023/09/25 00:08:10;;;;;;;6.03;4.53;;;11.50;99.90;;;;;;4948528;28;20043;-80
2023/09/25 00:10:36;;;;;;;7.50;4.78;;;11.50;99.90;;;;;;4957414;28;20460;-80
2023/09/25 00:13:01;;;;;;;6.03;4.50;;;11.50;99.90;;;;;;4957001;28;20046;-81
2023/09/25 00:15:27;;;;;;;6.05;4.72;;;11.60;99.90;;;;;;4969084;28;20084;-80
2023/09/25 00:17:53;;;;;;;8.75;5.05;;;11.60;99.90;;;;;;4944895;28;20034;-81
2023/09/25 00:20:24;;;;;;;6.40;4.53;;;11.60;99.90;;;;;;4934507;28;20047;-81
2023/09/25 00:22:50;;;;;;;6.75;4.93;;;11.60;99.90;;;;;;4951239;28;20043;-81
2023/09/25 00:25:19;;;;;;;6.90;5.28;;;11.50;99.90;;;;;;4941999;28;20402;-81
2023/09/25 00:27:44;;;;;;;7.75;5.18;;;11.60;99.90;;;;;;4940210;28;20037;-81
2023/09/25 00:30:11;;;;;;;8.35;5.55;;;11.50;99.90;;;;;;4934685;29;20039;-81
2023/09/25 00:32:36;;;;;;;6.63;5.40;;;11.50;99.90;;;;;;4957834;28;20397;-81
2023/09/25 00:35:06;;;;;;;6.20;5.40;;;11.40;99.90;;;;;;4957677;28;20051;-81
2023/09/25 00:37:32;;;;;;;7.13;4.97;;;11.40;99.90;;;;;;4941292;28;20038;-81
2023/09/25 00:40:07;;;;;;;6.63;6.03;;;11.40;99.90;;;;;;4935743;28;20042;-81
2023/09/25 00:42:32;;;;;;;6.60;5.80;;;11.40;99.90;;;;;;4957432;28;20126;-81
2023/09/25 00:44:58;;;;;;;7.03;5.93;;;11.40;99.90;;;;;;4957349;28;20462;-81
2023/09/25 00:47:23;;;;;;;7.72;6.60;;;11.30;99.90;;;;;;4948665;28;20152;-81
2023/09/25 00:49:49;;;;;;;7.70;6.38;;;11.30;99.90;;;;;;4953249;29;20044;-80
2023/09/25 00:52:15;;;;;;;12.18;7.13;;;11.30;99.90;;;;;;4935512;28;20483;-81
2023/09/25 00:54:41;;;;;;;6.97;5.75;;;11.30;99.90;;;;;;4943929;28;20026;-81
2023/09/25 00:57:07;;;;;;;7.35;6.05;;;11.20;99.90;;;;;;4955584;28;20405;-81
2023/09/25 00:59:33;;;;;;;9.35;6.90;;;11.20;99.90;;;;;;4940036;28;20501;-81
2023/09/25 01:01:58;;;;;;;8.25;5.97;;;11.20;99.90;;;;;;4950159;28;20046;-80
2023/09/25 01:04:24;;;;;;;7.72;5.82;;;11.20;99.90;;;;;;4956567;28;20042;-81
2023/09/25 01:06:50;;;;;;;7.13;6.43;;;11.20;99.90;;;;;;4955684;28;20089;-82
2023/09/25 01:09:16;;;;;;;6.82;6.07;;;11.20;99.90;;;;;;4944364;28;20393;-81
2023/09/25 01:11:42;;;;;;;7.43;6.75;;;11.20;99.90;;;;;;4957259;28;20042;-80
2023/09/25 01:14:09;;;;;;;8.10;6.28;;;11.10;99.90;;;;;;4947214;28;20062;-80
2023/09/25 01:16:36;;;;;;;8.52;6.78;;;11.20;99.90;;;;;;4945866;28;20094;-80
2023/09/25 01:19:02;;;;;;;7.20;6.47;;;11.20;99.90;;;;;;4950579;28;20054;-81
2023/09/25 01:21:28;;;;;;;9.05;6.90;;;11.10;99.90;;;;;;4954587;28;20552;-81
2023/09/25 01:23:54;;;;;;;6.97;5.70;;;11.10;99.90;;;;;;4963184;28;20054;-80
2023/09/25 01:26:19;;;;;;;9.77;6.63;;;11.10;99.90;;;;;;4956256;28;20419;-81
2023/09/25 01:28:45;;;;;;;8.82;7.03;;;11.10;99.90;;;;;;4949634;28;20089;-81
2023/09/25 01:31:10;;;;;;;8.95;6.95;;;11.10;99.90;;;;;;4949200;28;20622;-81
2023/09/25 01:33:36;;;;;;;9.43;7.10;;;11.10;99.90;;;;;;4959901;28;20034;-80
2023/09/25 01:36:02;;;;;;;8.15;7.45;;;11.10;99.90;;;;;;4975744;28;20038;-81
2023/09/25 01:38:28;;;;;;;7.68;6.95;;;11.00;99.90;;;;;;4947085;28;20130;-80
2023/09/25 01:40:54;;;;;;;8.77;6.97;;;11.00;99.90;;;;;;4945805;28;20588;-81
2023/09/25 01:43:19;;;;;;;8.90;7.60;;;11.00;99.90;;;;;;4959852;28;20129;-80
2023/09/25 01:45:45;;;;;;;8.32;7.57;;;11.00;99.90;;;;;;4956978;28;20078;-81
2023/09/25 01:48:11;;;;;;;8.75;7.93;;;11.00;99.90;;;;;;4949109;28;20050;-81
2023/09/25 01:50:37;;;;;;;12.38;8.95;;;10.90;99.90;;;;;;4956429;28;20408;-80
2023/09/25 01:53:06;;;;;;;8.65;7.75;;;10.90;99.90;;;;;;4956474;28;20053;-81
2023/09/25 08:36:24;;;;;;;5.68;4.43;;;14.80;99.90;;;;;;5567133;23;20047;-83
2023/09/25 08:38:49;;;;;;;6.30;4.15;;;14.90;99.90;;;;;;4957928;28;20050;-83
2023/09/25 08:41:19;;;;;;;4.45;3.75;;;15.00;99.90;;;;;;4957950;28;20082;-83
2023/09/25 08:43:44;;;;;;;4.93;3.72;;;15.20;99.90;;;;;;4957764;28;20074;-86
2023/09/25 08:46:11;;;;;;;6.18;4.05;;;15.30;99.90;;;;;;4941991;28;20081;-83
2023/09/25 08:48:36;;;;;;;4.45;3.40;;;15.40;99.90;;;;;;4958104;28;20042;-83
2023/09/25 08:51:02;;;;;;;5.22;3.47;;;15.60;99.90;;;;;;4942228;28;20051;-84
2023/09/25 08:53:29;;;;;;;5.72;4.07;;;15.70;99.90;;;;;;4957610;28;20031;-82
2023/09/25 08:55:55;;;;;;;5.13;3.55;;;16.00;99.90;;;;;;4957378;28;20057;-83
2023/09/25 08:58:22;;;;;;;4.38;3.55;;;16.20;99.90;;;;;;4957777;28;20125;-82
2023/09/25 09:00:48;;;;;;;4.45;3.38;;;16.40;99.90;;;;;;4941797;28;20571;-83
2023/09/25 09:03:13;;;;;;;3.88;3.30;;;16.40;99.90;;;;;;4941531;28;20039;-82
2023/09/25 09:05:39;;;;;;;5.03;3.20;;;16.40;99.90;;;;;;4941483;28;20396;-82
2023/09/25 09:08:09;;;;;;;5.80;3.08;;;16.40;99.90;;;;;;4941729;28;20046;-82
2023/09/25 09:10:39;;;;;;;5.03;3.33;;;16.60;99.90;;;;;;4957698;28;20090;-83
2023/09/25 09:13:11;;;;;;;4.15;3.15;;;16.70;99.90;;;;;;4941488;28;20397;-82
2023/09/25 09:15:38;;;;;;;4.22;3.30;;;16.90;99.90;;;;;;4941024;28;20042;-81
2023/09/25 09:18:24;;;;;;;4.22;3.03;;;17.10;99.90;;;;;;4940905;28;20034;-82
2023/09/25 09:20:50;;;;;;;4.78;2.88;;;17.20;99.90;;;;;;4957031;28;20085;-82
2023/09/25 09:23:16;;;;;;;4.80;2.97;;;17.40;99.90;;;;;;4957188;28;20034;-82
2023/09/25 09:25:48;;;;;;;5.47;3.30;;;17.40;99.90;;;;;;4940976;28;20041;-82
2023/09/25 09:28:14;;;;;;;6.07;3.20;;;17.40;99.90;;;;;;4940888;28;20043;-83
2023/09/25 09:30:41;;;;;;;4.25;3.30;;;17.40;99.90;;;;;;4940997;28;20286;-84
2023/09/25 09:33:08;;;;;;;4.28;3.10;;;17.40;99.90;;;;;;4957196;28;20489;-82
2023/09/25 09:35:34;;;;;;;3.95;2.90;;;17.40;99.90;;;;;;4940668;28;20035;-82
2023/09/25 09:38:02;;;;;;;4.00;2.75;;;17.40;99.90;;;;;;4941143;28;20045;-82
2023/09/25 09:40:28;;;;;;;10.25;3.70;;;17.40;99.90;;;;;;4956657;28;20034;-84
2023/09/25 09:42:54;;;;;;;4.38;2.90;;;17.40;99.90;;;;;;4940783;28;20078;-85
2023/09/25 09:45:21;;;;;;;4.80;2.88;;;17.60;99.90;;;;;;4956430;28;20450;-83
2023/09/25 09:47:50;;;;;;;3.58;2.80;;;17.70;99.90;;;;;;4940776;28;20039;-83
2023/09/25 09:50:26;;;;;;;5.25;3.00;;;17.80;99.90;;;;;;4956710;28;20038;-83
2023/09/25 09:52:52;;;;;;;4.20;2.95;;;17.90;99.90;;;;;;4941023;28;20497;-83
2023/09/25 09:55:20;;;;;;;5.55;2.80;;;18.00;99.90;;;;;;4940605;28;20073;-84
2023/09/25 09:57:47;;;;;;;5.50;2.95;;;18.20;99.90;;;;;;4940953;28;20047;-83
2023/09/25 10:00:13;;;;;;;3.28;2.80;;;18.20;99.90;;;;;;4956620;28;20057;-83
2023/09/25 10:02:40;;;;;;;4.43;2.50;;;18.30;99.90;;;;;;4940732;28;20050;-83
2023/09/25 10:05:10;;;;;;;5.60;2.65;;;18.30;99.90;;;;;;4956155;28;20117;-84
2023/09/25 10:08:06;;;;;;;3.60;2.78;;;18.40;99.90;;;;;;4956419;28;20231;-82
2023/09/25 10:10:41;;;;;;;3.45;2.45;;;18.50;99.90;;;;;;4956347;28;20042;-82
2023/09/25 10:13:26;;;;;;;3.85;2.20;;;18.60;99.90;;;;;;4940570;28;20046;-83
2023/09/25 10:16:00;;;;;;;5.50;2.30;;;18.70;99.90;;;;;;4941269;28;20047;-83
2023/09/25 10:18:27;;;;;;;3.35;2.22;;;18.90;99.90;;;;;;4940548;28;20038;-83
2023/09/25 10:21:09;;;;;;;4.22;2.08;;;19.00;99.90;;;;;;4940380;28;20117;-82
2023/09/25 10:23:38;;;;;;;4.05;2.40;;;19.20;99.90;;;;;;4940332;28;20042;-82
2023/09/25 10:26:03;;;;;;;3.63;2.20;;;19.30;99.90;;;;;;4940205;28;20078;-82
2023/09/25 10:28:37;;;;;;;4.85;2.83;;;19.30;99.90;;;;;;4940063;28;20066;-84
2023/09/25 10:31:17;;;;;;;2.63;2.20;;;19.40;99.90;;;;;;4940236;28;20054;-84
2023/09/25 10:33:53;;;;;;;3.33;2.10;;;19.70;99.90;;;;;;4940112;28;20042;-84
2023/09/25 10:36:19;;;;;;;4.68;2.45;;;20.00;99.90;;;;;;4955744;28;20093;-83
2023/09/25 10:38:52;;;;;;;5.28;2.25;;;20.20;99.90;;;;;;4956054;28;20129;-83
2023/09/25 10:41:21;;;;;;;3.17;2.55;;;20.30;99.90;;;;;;4956323;28;20051;-83
2023/09/25 10:43:47;;;;;;;3.22;2.30;;;20.40;99.90;;;;;;4956258;28;20042;-82
2023/09/25 10:46:13;;;;;;;4.50;2.33;;;20.70;99.90;;;;;;4955778;28;20129;-83
2023/09/25 10:48:41;;;;;;;3.70;2.30;;;20.60;99.90;;;;;;4955848;28;20527;-83
2023/09/25 10:51:07;;;;;;;4.57;2.28;;;20.60;99.90;;;;;;4955937;28;20046;-83
2023/09/25 10:53:33;;;;;;;4.10;2.30;;;20.60;99.90;;;;;;4940224;28;20046;-83
2023/09/25 10:55:59;;;;;;;4.22;2.30;;;20.60;99.90;;;;;;4955464;28;20049;-83
2023/09/25 10:58:25;;;;;;;4.88;2.35;;;20.60;99.90;;;;;;4939824;28;20073;-83
2023/09/25 11:00:51;;;;;;;3.28;2.10;;;20.60;99.90;;;;;;4955983;28;20445;-83
2023/09/25 11:03:16;;;;;;;4.22;2.20;;;20.70;99.90;;;;;;4939889;28;20034;-84
2023/09/25 11:05:42;;;;;;;3.45;2.28;;;20.80;99.90;;;;;;4939631;28;20043;-83
2023/09/25 11:08:15;;;;;;;4.75;2.55;;;21.00;99.90;;;;;;4955757;28;20232;-82
2023/09/25 11:10:42;;;;;;;3.92;2.25;;;21.00;99.90;;;;;;4955941;28;20402;-82
2023/09/25 11:13:09;;;;;;;3.75;2.30;;;21.20;99.90;;;;;;4955771;28;20066;-84
2023/09/25 11:15:37;;;;;;;3.28;2.25;;;21.30;99.90;;;;;;4955648;28;20409;-82
2023/09/25 11:18:03;;;;;;;5.40;3.47;;;21.40;99.90;;;;;;4955568;28;20046;-83
2023/09/25 11:20:32;;;;;;;14.75;13.23;;;21.50;99.90;;;;;;4939622;28;20042;-84
2023/09/25 11:23:15;;;;;;;14.32;12.93;;;21.70;99.90;;;;;;4955536;28;20051;-83
2023/09/25 11:25:46;;;;;;;7.30;5.13;;;21.80;99.90;;;;;;4955325;28;20129;-82
2023/09/25 11:28:13;;;;;;;17.63;12.30;;;21.80;99.90;;;;;;4955794;28;20074;-83
2023/09/25 11:30:40;;;;;;;14.35;10.57;;;21.80;99.90;;;;;;4955477;28;20069;-84
2023/09/25 11:33:07;;;;;;;20.63;15.18;;;21.70;99.90;;;;;;4955777;28;20426;-83
2023/09/25 11:35:37;;;;;;;12.82;8.90;;;21.70;99.90;;;;;;4955114;28;20042;-84
2023/09/25 11:38:14;;;;;;;16.85;11.43;;;21.80;99.90;;;;;;4939649;28;20046;-83
2023/09/25 11:40:39;;;;;;;4.43;2.60;;;21.90;99.90;;;;;;4955761;28;20042;-83
2023/09/25 11:43:06;;;;;;;5.18;2.60;;;22.00;99.90;;;;;;4957838;28;20057;-84
2023/09/25 11:45:33;;;;;;;5.57;3.97;;;22.10;99.90;;;;;;4958857;28;20109;-82
2023/09/25 11:47:59;;;;;;;9.90;6.30;;;22.20;99.90;;;;;;4958819;28;20042;-83
2023/09/25 11:50:25;;;;;;;8.40;5.30;;;22.30;99.90;;;;;;4958798;28;20053;-82
2023/09/25 11:52:52;;;;;;;5.90;4.28;;;22.30;99.90;;;;;;4943134;28;20039;-82
2023/09/25 11:55:19;;;;;;;4.90;2.63;;;22.30;99.90;;;;;;4958696;28;20090;-83
2023/09/25 11:57:45;;;;;;;6.80;4.15;;;22.20;99.90;;;;;;4942848;28;20122;-82
2023/09/25 12:00:16;;;;;;;6.93;4.35;;;22.00;99.90;;;;;;4942858;28;20437;-82
2023/09/25 12:02:45;;;;;;;6.13;3.88;;;21.70;99.90;;;;;;4958876;28;20405;-83
2023/09/25 12:05:11;;;;;;;5.57;3.10;;;21.50;99.90;;;;;;4958416;28;20537;-82
2023/09/25 12:07:37;;;;;;;4.32;2.33;;;21.40;99.90;;;;;;4958795;28;20133;-82
2023/09/25 12:10:07;;;;;;;3.97;2.22;;;21.60;99.90;;;;;;4942375;28;20126;-82
2023/09/25 12:12:37;;;;;;;4.13;2.50;;;21.90;99.90;;;;;;4958597;28;20078;-82
2023/09/25 12:15:03;;;;;;;4.68;2.35;;;22.20;99.90;;;;;;4942315;28;20053;-82
2023/09/25 12:17:30;;;;;;;4.15;2.33;;;22.30;99.90;;;;;;4958366;28;20057;-82
2023/09/25 12:20:11;;;;;;;3.88;2.20;;;22.50;99.90;;;;;;4942280;28;20085;-83
2023/09/25 12:22:37;;;;;;;3.60;2.47;;;22.60;99.90;;;;;;4958410;28;20059;-83
2023/09/25 12:25:05;;;;;;;3.63;2.47;;;22.40;99.90;;;;;;4942144;28;20100;-82
2023/09/25 12:27:30;;;;;;;4.47;2.97;;;22.40;99.90;;;;;;4942025;28;20038;-83
2023/09/25 12:29:56;;;;;;;3.25;2.30;;;22.40;99.90;;;;;;4958041;28;20517;-82
2023/09/25 12:32:22;;;;;;;4.05;2.72;;;22.40;99.90;;;;;;4942177;28;20461;-82
2023/09/25 12:34:48;;;;;;;5.82;2.95;;;22.30;99.90;;;;;;4941952;28;20460;-82
2023/09/25 12:37:14;;;;;;;4.85;2.75;;;22.30;99.90;;;;;;4957751;28;20070;-82
2023/09/25 12:39:40;;;;;;;2.75;2.03;;;22.10;99.90;;;;;;4957980;28;20405;-82
2023/09/25 12:42:06;;;;;;;5.68;2.38;;;22.10;99.90;;;;;;4958029;28;20047;-82
2023/09/25 12:44:31;;;;;;;3.67;2.75;;;22.00;99.90;;;;;;4958032;28;20042;-82
2023/09/25 12:46:57;;;;;;;3.63;2.60;;;21.80;99.90;;;;;;4957681;28;20054;-82
2023/09/25 12:49:23;;;;;;;4.75;2.85;;;21.70;99.90;;;;;;4957878;28;20078;-82
2023/09/25 12:51:50;;;;;;;3.95;2.80;;;21.60;99.90;;;;;;4941901;28;20039;-82
2023/09/25 12:54:16;;;;;;;5.53;2.75;;;21.60;99.90;;;;;;4941841;28;20362;-83
2023/09/25 12:56:43;;;;;;;3.65;2.70;;;21.70;99.90;;;;;;4957520;28;20045;-83
2023/09/25 12:59:09;;;;;;;8.68;3.10;;;21.90;99.90;;;;;;4941689;28;20043;-82
2023/09/25 13:01:35;;;;;;;4.68;2.58;;;22.10;99.90;;;;;;4941752;28;20501;-82
2023/09/25 13:04:02;;;;;;;3.90;2.53;;;22.40;99.90;;;;;;4957528;28;20066;-83
2023/09/25 13:06:28;;;;;;;4.93;3.10;;;22.60;99.90;;;;;;4941144;28;20049;-82
2023/09/25 13:08:53;;;;;;;4.57;2.75;;;22.50;99.90;;;;;;4941609;28;20129;-82
2023/09/25 13:11:19;;;;;;;3.72;2.58;;;22.40;99.90;;;;;;4957434;28;20043;-82
2023/09/25 13:13:45;;;;;;;4.15;2.40;;;22.60;99.90;;;;;;4941489;28;20046;-82
2023/09/25 13:16:10;;;;;;;3.45;2.45;;;22.90;99.90;;;;;;4941096;28;20043;-82
2023/09/25 13:18:36;;;;;;;4.18;2.50;;;23.10;99.90;;;;;;4941243;28;20096;-82
2023/09/25 13:21:01;;;;;;;3.58;2.40;;;23.00;99.90;;;;;;4957070;28;20054;-82
2023/09/25 13:23:27;;;;;;;3.38;2.35;;;22.80;99.90;;;;;;4957219;28;20046;-82
2023/09/25 13:25:53;;;;;;;3.38;2.22;;;22.70;99.90;;;;;;4956837;28;20077;-81
2023/09/25 13:28:18;;;;;;;4.20;2.53;;;22.40;99.90;;;;;;4957218;28;20092;-82
2023/09/25 13:30:44;;;;;;;3.53;2.17;;;22.10;99.90;;;;;;4957248;28;20046;-84
2023/09/25 13:33:09;;;;;;;5.70;2.40;;;21.80;99.90;;;;;;4957066;28;20038;-83
2023/09/25 13:35:35;;;;;;;5.38;3.00;;;21.60;99.90;;;;;;4956776;28;20504;-82
2023/09/25 13:38:01;;;;;;;4.68;2.67;;;21.40;99.90;;;;;;4941315;28;20493;-82
2023/09/25 13:40:28;;;;;;;3.80;2.33;;;21.20;99.90;;;;;;4940977;28;20047;-82
2023/09/25 13:42:54;;;;;;;4.25;2.47;;;21.30;99.90;;;;;;4940792;28;20058;-82
2023/09/25 13:45:21;;;;;;;5.22;2.58;;;21.20;99.90;;;;;;4956488;28;20039;-82
2023/09/25 13:47:47;;;;;;;4.43;2.42;;;21.20;99.90;;;;;;4941119;28;20038;-82
2023/09/25 13:50:15;;;;;;;4.03;2.50;;;21.30;99.90;;;;;;4940495;28;20035;-83
2023/09/25 13:52:41;;;;;;;4.60;2.33;;;21.40;99.90;;;;;;4940606;28;20505;-82
2023/09/25 13:55:10;;;;;;;5.50;2.63;;;21.50;99.90;;;;;;4956648;28;20043;-81
2023/09/25 13:57:37;;;;;;;3.38;2.40;;;21.50;99.90;;;;;;4956455;28;20038;-82
2023/09/25 14:00:07;;;;;;;4.78;2.60;;;21.50;99.90;;;;;;4956800;28;20417;-81
2023/09/25 14:02:33;;;;;;;4.03;2.45;;;21.40;99.90;;;;;;4940603;28;20039;-83
2023/09/25 14:04:59;;;;;;;5.85;2.70;;;21.20;99.90;;;;;;4939796;28;20505;-81
2023/09/25 14:07:24;;;;;;;5.55;3.13;;;21.10;99.90;;;;;;4956436;28;20053;-82
2023/09/25 14:09:50;;;;;;;4.03;2.85;;;21.00;99.90;;;;;;4940350;28;20046;-82
2023/09/25 14:12:15;;;;;;;4.55;2.85;;;20.80;99.90;;;;;;4940742;28;20081;-82
2023/09/25 14:14:44;;;;;;;4.95;2.75;;;20.70;99.90;;;;;;4940078;28;20122;-81
2023/09/25 14:17:10;;;;;;;4.70;2.50;;;20.60;99.90;;;;;;4956192;28;20043;-82
2023/09/25 14:19:35;;;;;;;3.70;2.60;;;20.50;99.90;;;;;;4956540;28;20042;-81
2023/09/25 14:22:03;;;;;;;3.88;2.58;;;20.40;99.90;;;;;;4940437;28;20320;-82
2023/09/25 14:24:29;;;;;;;5.18;3.00;;;20.30;99.90;;;;;;4956096;28;20212;-81
2023/09/25 14:26:59;;;;;;;5.65;2.90;;;20.20;99.90;;;;;;4939801;28;20042;-82
2023/09/25 14:29:29;;;;;;;5.28;2.70;;;20.10;99.90;;;;;;4956044;28;20047;-81
2023/09/25 14:31:56;;;;;;;4.35;2.67;;;20.00;99.90;;;;;;4940134;28;20034;-82
2023/09/25 14:34:22;;;;;;;3.88;2.60;;;19.90;99.90;;;;;;4956261;28;20370;-82
2023/09/25 14:36:49;;;;;;;5.03;2.67;;;19.80;99.90;;;;;;4939791;28;20078;-82
2023/09/25 14:39:15;;;;;;;4.70;2.67;;;19.80;99.90;;;;;;4940001;28;20097;-81
2023/09/25 14:41:41;;;;;;;4.43;2.92;;;19.80;99.90;;;;;;4956315;28;20074;-82
2023/09/25 14:44:07;;;;;;;5.85;2.72;;;19.80;99.90;;;;;;4956088;28;20042;-83
2023/09/25 14:46:34;;;;;;;6.30;3.03;;;19.70;99.90;;;;;;4955605;28;20045;-83
2023/09/25 15:28:41;;;;;;;5.32;3.00;;;18.90;99.90;;;;;;4975061;28;20047;-83
2023/09/25 15:31:06;;;;;;;4.82;2.63;;;18.80;99.90;;;;;;4943315;28;20050;-83
2023/09/25 15:33:32;;;;;;;5.25;3.05;;;18.80;99.90;;;;;;4943438;28;20121;-83
2023/09/25 15:35:58;;;;;;;5.13;2.90;;;18.80;99.90;;;;;;4959170;28;20045;-83
2023/09/25 15:38:23;;;;;;;4.43;2.92;;;18.70;99.90;;;;;;4959074;28;20502;-83
2023/09/25 15:40:49;;;;;;;4.75;3.10;;;18.60;99.90;;;;;;4960028;28;20039;-83
2023/09/25 15:43:15;;;;;;;6.80;3.30;;;18.60;99.90;;;;;;4959548;28;20074;-82
2023/09/25 15:45:41;;;;;;;3.63;2.65;;;18.60;99.90;;;;;;4942991;28;20066;-83
2023/09/25 15:48:06;;;;;;;5.10;3.10;;;18.50;99.90;;;;;;4959162;28;20039;-82
2023/09/25 15:50:32;;;;;;;4.35;3.05;;;18.50;99.90;;;;;;4942908;28;20039;-83
2023/09/25 15:52:59;;;;;;;5.65;3.20;;;18.40;99.90;;;;;;4959075;28;20039;-83
2023/09/25 15:55:25;;;;;;;4.05;2.92;;;18.40;99.90;;;;;;4942956;28;20146;-83
2023/09/25 15:57:51;;;;;;;4.82;2.92;;;18.30;99.90;;;;;;4958865;28;20074;-83
2023/09/25 16:00:17;;;;;;;4.85;2.92;;;18.30;99.90;;;;;;4950485;28;20054;-84
2023/09/25 16:02:42;;;;;;;4.68;2.60;;;18.20;99.90;;;;;;4945305;28;20038;-85
2023/09/25 16:05:08;;;;;;;4.47;2.92;;;18.20;99.90;;;;;;4955935;28;20038;-85
2023/09/25 16:07:34;;;;;;;4.18;2.65;;;18.20;99.90;;;;;;4950001;28;20069;-85
2023/09/25 16:10:07;;;;;;;4.20;3.00;;;18.20;99.90;;;;;;4951984;28;20413;-83
2023/09/25 16:12:33;;;;;;;6.47;3.13;;;18.10;99.90;;;;;;4959384;28;20070;-83
2023/09/25 16:15:02;;;;;;;5.72;3.10;;;18.00;99.90;;;;;;4942074;28;20109;-85
2023/09/25 16:17:27;;;;;;;4.95;2.83;;;18.00;99.90;;;;;;4953459;28;20614;-85
2023/09/25 16:19:53;;;;;;;4.57;2.70;;;17.90;99.90;;;;;;4956261;28;20042;-85
2023/09/25 16:22:18;;;;;;;6.07;3.25;;;17.90;99.90;;;;;;4966863;28;20386;-85
2023/09/25 16:24:44;;;;;;;4.00;2.80;;;17.90;99.90;;;;;;4953459;28;20046;-83
2023/09/25 16:27:13;;;;;;;4.18;2.45;;;17.80;99.90;;;;;;4954693;28;20042;-84
2023/09/25 16:29:38;;;;;;;6.28;2.55;;;17.70;99.90;;;;;;4940808;28;20565;-85
2023/09/25 16:32:04;;;;;;;4.68;2.90;;;17.70;99.90;;;;;;4950062;28;20121;-86
2023/09/25 16:34:29;;;;;;;4.07;3.00;;;17.70;99.90;;;;;;4953057;28;20512;-83
2023/09/25 16:36:55;;;;;;;5.43;2.90;;;17.60;99.90;;;;;;4965673;28;20126;-83
2023/09/25 16:39:21;;;;;;;4.47;3.08;;;17.60;99.90;;;;;;4943418;28;20500;-83
2023/09/25 16:41:47;;;;;;;5.65;2.97;;;17.50;99.90;;;;;;4957959;28;20121;-83
2023/09/25 16:44:12;;;;;;;5.32;3.00;;;17.40;99.90;;;;;;4931106;28;20035;-83
2023/09/25 16:46:39;;;;;;;6.20;3.28;;;17.40;99.90;;;;;;4933115;28;20046;-83
2023/09/25 16:49:05;;;;;;;4.05;2.65;;;17.30;99.90;;;;;;4940698;28;20043;-82
2023/09/25 16:51:30;;;;;;;5.00;2.92;;;17.20;99.90;;;;;;4964428;28;20154;-82
2023/09/25 16:53:56;;;;;;;3.72;2.80;;;17.20;99.90;;;;;;4957784;28;20034;-84
2023/09/25 16:56:22;;;;;;;4.72;3.30;;;17.10;99.90;;;;;;4945489;28;20042;-82
2023/09/25 16:58:47;;;;;;;5.18;3.22;;;17.00;99.90;;;;;;4960945;28;20042;-82
2023/09/25 17:01:13;;;;;;;6.47;3.78;;;16.90;99.90;;;;;;4960799;28;20043;-82
2023/09/25 17:03:39;;;;;;;5.93;3.35;;;16.90;99.90;;;;;;4949789;28;20047;-82
2023/09/25 17:06:06;;;;;;;5.13;3.40;;;16.80;99.90;;;;;;4966331;28;20553;-82
2023/09/25 17:08:31;;;;;;;4.43;3.35;;;16.70;99.90;;;;;;4949239;28;20045;-82
2023/09/25 17:10:58;;;;;;;5.55;4.07;;;16.70;99.90;;;;;;4941444;28;20051;-82
2023/09/25 17:13:26;;;;;;;4.85;3.25;;;16.50;99.90;;;;;;4957552;28;20484;-82
2023/09/25 17:15:51;;;;;;;5.95;3.58;;;16.40;99.90;;;;;;4940357;28;20117;-82
2023/09/25 17:18:18;;;;;;;5.00;3.78;;;16.40;99.90;;;;;;4961859;28;20544;-82
2023/09/25 17:20:43;;;;;;;5.63;3.53;;;16.30;99.90;;;;;;4973348;28;20082;-82
2023/09/25 17:23:09;;;;;;;7.55;5.20;;;16.20;99.90;;;;;;4949943;28;20042;-82
2023/09/25 17:25:38;;;;;;;7.53;4.95;;;16.20;99.90;;;;;;4954619;28;20070;-82
2023/09/25 17:28:06;;;;;;;6.90;5.70;;;16.00;99.90;;;;;;4958755;28;20417;-82
2023/09/25 17:30:34;;;;;;;6.40;4.63;;;16.00;99.90;;;;;;4932319;28;20086;-82
2023/09/25 17:33:01;;;;;;;9.90;6.03;;;15.80;99.90;;;;;;4951849;28;20540;-82
2023/09/25 17:35:28;;;;;;;9.55;5.68;;;15.70;99.90;;;;;;4935512;28;20082;-82
2023/09/25 17:37:54;;;;;;;8.05;5.60;;;15.60;99.90;;;;;;4940583;28;20046;-82
2023/09/25 17:40:20;;;;;;;7.28;4.88;;;15.50;99.90;;;;;;4951393;28;20067;-82
2023/09/25 17:42:46;;;;;;;6.85;4.90;;;15.50;99.90;;;;;;4944333;29;20146;-82
2023/09/25 17:45:11;;;;;;;7.13;4.35;;;15.40;99.90;;;;;;4937922;28;20047;-82
2023/09/25 17:47:39;;;;;;;6.28;4.60;;;15.30;99.90;;;;;;4942041;28;20070;-82
2023/09/25 17:50:07;;;;;;;5.80;4.55;;;15.20;99.90;;;;;;4939031;29;20122;-82
2023/09/25 17:52:34;;;;;;;4.40;3.97;;;15.10;99.90;;;;;;4952036;28;20079;-84
2023/09/25 17:54:59;;;;;;;6.40;4.07;;;15.00;99.90;;;;;;4946912;28;20035;-83
2023/09/25 17:57:25;;;;;;;6.05;4.40;;;14.90;99.90;;;;;;4929164;28;20158;-82
2023/09/25 17:59:51;;;;;;;5.78;4.07;;;14.80;99.90;;;;;;4957051;28;20066;-83
2023/09/25 18:02:17;;;;;;;5.28;4.25;;;14.70;99.90;;;;;;4936558;28;20038;-83
2023/09/25 18:04:43;;;;;;;6.28;4.50;;;14.60;99.90;;;;;;4938121;28;20043;-83
2023/09/25 18:07:09;;;;;;;5.93;4.80;;;14.50;99.90;;;;;;4939579;28;20057;-83
2023/09/25 18:09:34;;;;;;;5.82;4.32;;;14.50;99.90;;;;;;4955334;28;20039;-83
2023/09/25 18:12:00;;;;;;;7.97;5.07;;;14.40;99.90;;;;;;4937223;28;20058;-83
2023/09/25 18:14:29;;;;;;;6.32;4.57;;;14.40;99.90;;;;;;4932926;29;20047;-83
2023/09/25 18:16:54;;;;;;;5.75;4.60;;;14.30;99.90;;;;;;4933000;28;20130;-83
2023/09/25 18:19:20;;;;;;;6.50;4.43;;;14.20;99.90;;;;;;4939491;28;20446;-83
2023/09/25 18:21:46;;;;;;;6.35;5.45;;;14.20;99.90;;;;;;4955155;28;20046;-83
2023/09/25 18:24:11;;;;;;;5.65;4.72;;;14.10;99.90;;;;;;4954885;28;20419;-83
2023/09/25 18:26:38;;;;;;;5.10;4.10;;;14.10;99.90;;;;;;4939161;29;20163;-83
2023/09/25 18:29:05;;;;;;;4.50;4.10;;;14.00;99.90;;;;;;4935928;29;20039;-83
2023/09/25 18:31:31;;;;;;;6.05;5.40;;;14.00;99.90;;;;;;4943215;28;20043;-83
2023/09/25 18:33:56;;;;;;;5.88;5.07;;;13.90;99.90;;;;;;4948991;29;20031;-83
2023/09/25 18:36:22;;;;;;;6.78;6.10;;;13.80;99.90;;;;;;4937106;28;20077;-84
2023/09/25 18:38:48;;;;;;;8.40;6.30;;;13.80;99.90;;;;;;4939911;28;20047;-84
2023/09/25 18:41:14;;;;;;;7.30;6.60;;;13.70;99.90;;;;;;4936962;28;20122;-84
2023/09/25 18:43:40;;;;;;;8.82;7.93;;;13.70;99.90;;;;;;4944756;28;20050;-84
2023/09/25 18:46:05;;;;;;;9.52;8.52;;;13.70;99.90;;;;;;4953919;28;20054;-84
2023/09/25 18:48:31;;;;;;;9.55;7.38;;;13.60;99.90;;;;;;4934744;28;20402;-84
2023/09/25 18:50:57;;;;;;;9.50;7.60;;;13.60;99.90;;;;;;4957248;28;20482;-84
2023/09/25 18:53:22;;;;;;;8.98;7.40;;;13.60;99.90;;;;;;4946298;28;20089;-84
2023/09/25 18:55:48;;;;;;;8.63;7.82;;;13.60;99.90;;;;;;4959631;28;20493;-84
2023/09/25 18:58:14;;;;;;;7.65;6.90;;;13.60;99.90;;;;;;4962152;28;20109;-85
2023/09/25 19:00:49;;;;;;;9.30;8.40;;;13.50;99.90;;;;;;4933558;28;20046;-83
2023/09/25 19:03:16;;;;;;;7.75;7.05;;;13.50;99.90;;;;;;4939755;28;20246;-82
2023/09/25 19:05:43;;;;;;;11.75;10.55;;;13.40;99.90;;;;;;4962083;28;20046;-82
2023/09/25 19:08:08;;;;;;;9.68;8.27;;;13.40;99.90;;;;;;4957928;28;20046;-82
2023/09/25 19:10:34;;;;;;;9.18;8.27;;;13.30;99.90;;;;;;4949693;28;20026;-83
2023/09/25 19:13:00;;;;;;;9.23;8.43;;;13.30;99.90;;;;;;4960634;28;20042;-83
2023/09/25 19:15:25;;;;;;;9.35;8.55;;;13.30;99.90;;;;;;4936539;28;20412;-82
2023/09/25 19:17:51;;;;;;;9.27;8.40;;;13.20;99.90;;;;;;4953829;28;20035;-82
2023/09/25 19:20:16;;;;;;;10.23;9.20;;;13.30;99.90;;;;;;4968393;28;20559;-83
2023/09/25 19:22:42;;;;;;;11.68;9.43;;;13.30;99.90;;;;;;4955047;28;20548;-82
2023/09/25 19:25:09;;;;;;;11.45;10.52;;;13.30;99.90;;;;;;4936608;28;20047;-82
2023/09/25 19:27:36;;;;;;;12.40;10.90;;;13.40;99.90;;;;;;4951914;28;20043;-83
2023/09/25 19:30:02;;;;;;;12.43;11.30;;;13.40;99.90;;;;;;4955398;28;20035;-83
2023/09/25 19:32:27;;;;;;;12.88;11.57;;;13.50;99.90;;;;;;4961330;28;20449;-83
2023/09/25 19:34:54;;;;;;;12.40;11.30;;;13.60;99.90;;;;;;4967879;28;20077;-83
2023/09/25 19:37:20;;;;;;;12.85;11.57;;;13.70;99.90;;;;;;4960476;28;20070;-83
2023/09/25 19:39:47;;;;;;;11.68;10.63;;;13.80;99.90;;;;;;4969878;28;20085;-83
2023/09/25 19:42:12;;;;;;;13.00;11.80;;;13.80;99.90;;;;;;4939424;28;20039;-83
2023/09/25 19:44:41;;;;;;;11.45;10.45;;;13.90;99.90;;;;;;4945639;28;20043;-83
2023/09/25 19:47:06;;;;;;;12.15;10.95;;;14.00;99.90;;;;;;4931868;28;20078;-83
2023/09/25 19:49:32;;;;;;;11.20;10.20;;;14.00;99.90;;;;;;4944632;28;20070;-83
2023/09/25 19:51:57;;;;;;;10.88;9.85;;;14.10;99.90;;;;;;4978096;28;20051;-83
2023/09/25 19:54:24;;;;;;;11.68;10.68;;;14.10;99.90;;;;;;4948266;28;20045;-83
2023/09/25 19:56:49;;;;;;;11.00;10.00;;;14.10;99.90;;;;;;4941818;28;20035;-83
2023/09/25 19:59:15;;;;;;;10.95;9.85;;;14.20;99.90;;;;;;4967401;28;20145;-83
2023/09/25 20:01:40;;;;;;;10.85;9.93;;;14.20;99.90;;;;;;4961987;28;20409;-82
2023/09/25 20:04:06;;;;;;;10.88;9.98;;;14.30;99.90;;;;;;4945383;28;20041;-83